Latest Coastal Weather Observations for Shark Bay Airport

IDW60701

Issued at 6:12 pm WST Friday 28 April 2017 (issued every 10 minutes, with the page automatically refreshed every 10 minutes)

About coastal observations | Map of coastal stations | Coastal observations for WA | Marine services | Other Formats
Station Details ID: 006105 Name: SHARK BAY AIRPORT Lat: -25.89 Lon: 113.58 Height: 33.8 m
Data from the previous 72 hours. | See also: Recent months at Shark Bay Airport
Date/Time
WST
Temp
°C
Wind Pressure Rain since
9am
mm
Weather Cloud Vis
km
Sea
Height
m
Swell
Dir  Spd
kts
Gust
kts
hPa Trend Height
m
Period
s
Dir
28/06:00pm 23.2 SSE 16 21 1018.4 - 0.0 - - - - - - -
28/05:37pm 24.0 S 15 25 1018.3 - 0.0 - - - - - - -
28/05:30pm 24.3 S 13 19 1018.3 - 0.0 - - - - - - -
28/05:00pm 25.3 WNW 16 21 1018.3 - 0.0 - - - - - - -
28/04:30pm 26.4 W 15 21 1018.1 - 0.0 - - - - - - -
28/04:00pm 27.9 SW 14 19 1018.0 - 0.0 - - - - - - -
28/03:30pm 28.2 SW 13 18 1018.1 - 0.0 - - - - - - -
28/03:00pm 28.3 SW 14 20 1018.0 - 0.0 - - - - - - -
28/02:30pm 28.1 SW 15 25 1018.2 - 0.0 - - - - - - -
28/02:29pm 28.4 SW 15 25 1018.1 - 0.0 - - - - - - -
28/02:00pm 28.3 SW 17 22 1018.3 - 0.0 - - - - - - -
28/01:30pm 28.4 SW 15 20 1018.6 - 0.0 - - - - - - -
28/01:00pm 28.7 S 11 20 1019.1 - 0.0 - - - - - - -
28/12:30pm 28.8 S 9 15 1019.4 - 0.0 - - - - - - -
28/12:00pm 29.2 SSE 11 18 1019.9 - 0.0 - - - - - - -
28/11:30am 28.5 SE 12 16 1020.2 - 0.0 - - - - - - -
28/11:00am 27.8 SE 13 17 1020.7 - 0.0 - - - - - - -
28/10:30am 26.8 ESE 13 18 1021.0 - 0.0 - - - - - - -
28/10:00am 26.4 ESE 12 16 1021.1 - 0.0 - - - - - - -
28/09:30am 25.1 ESE 12 16 1021.3 - 0.0 - - - - - - -
28/09:00am 23.9 ESE 14 19 1021.3 - 0.0 - - - - - - -
28/08:30am 23.1 ESE 12 16 1021.2 - 0.0 - - - - - - -
28/08:00am 21.6 ESE 12 16 1021.1 - 0.0 - - - - - - -
28/07:30am 19.9 ESE 10 14 1020.9 - 0.0 - - - - - - -
28/07:00am 18.3 ESE 9 11 1020.6 - 0.0 - - - - - - -
28/06:30am 18.1 ESE 8 11 1020.4 - 0.0 - - - - - - -
28/06:00am 18.4 SE 10 13 1020.3 - 0.0 - - - - - - -
28/05:30am 17.8 ESE 8 10 1020.3 - 0.0 - - - - - - -
28/05:00am 18.6 ESE 9 12 1020.0 - 0.0 - - - - - - -
28/04:30am 18.3 ESE 8 10 1019.9 - 0.0 - - - - - - -
28/04:00am 18.3 SE 8 11 1019.8 - 0.0 - - - - - - -
28/03:30am 18.2 SE 8 10 1019.8 - 0.0 - - - - - - -
28/03:00am 18.2 SE 7 9 1019.7 - 0.0 - - - - - - -
28/02:30am 19.6 SE 8 11 1019.5 - 0.0 - - - - - - -
28/02:00am 20.1 SE 8 11 1019.5 - 0.0 - - - - - - -
28/01:30am 20.2 ESE 9 11 1019.4 - 0.0 - - - - - - -
28/01:00am 20.4 ESE 9 10 1019.5 - 0.0 - - - - - - -
28/12:30am 21.0 ESE 9 12 1019.5 - 0.0 - - - - - - -
28/12:00am 21.2 SE 10 13 1019.6 - 0.0 - - - - - - -
 
Date/Time
WST
Temp
°C
Wind Pressure Rain since
9am
mm
Weather Cloud Vis
km
Sea
Height
m
Swell
Dir  Spd
kts
Gust
kts
hPa Trend Height
m
Period
s
Dir
27/11:30pm 20.7 SE 9 11 1019.8 - 0.0 - - - - - - -
27/11:00pm 20.5 SE 8 11 1019.8 - 0.0 - - - - - - -
27/10:30pm 21.1 SSE 9 12 1019.8 - 0.0 - - - - - - -
27/10:00pm 21.6 SSE 10 15 1019.8 - 0.0 - - - - - - -
27/09:30pm 22.0 SSE 11 16 1019.5 - 0.0 - - - - - - -
27/09:00pm 22.3 SSE 12 17 1019.4 - 0.0 - - - - - - -
27/08:30pm 22.5 S 12 16 1019.2 - 0.0 - - - - - - -
27/08:00pm 22.8 S 13 18 1019.0 - 0.0 - - - - - - -
27/07:30pm 23.0 S 12 16 1018.7 - 0.0 - - - - - - -
27/07:00pm 23.4 S 13 17 1018.4 - 0.0 - - - - - - -
27/06:30pm 24.1 S 13 18 1018.2 - 0.0 - - - - - - -
27/06:00pm 24.9 S 13 18 1017.9 - 0.0 - - - - - - -
27/05:30pm 26.5 SW 13 17 1017.7 - 0.0 - - - - - - -
27/05:00pm 28.4 WSW 13 18 1017.4 - 0.0 - - - - - - -
27/04:30pm 29.2 WSW 9 14 1017.4 - 0.0 - - - - - - -
27/04:00pm 30.7 SE 9 14 1017.4 - 0.0 - - - - - - -
27/03:30pm 30.8 SE 10 16 1017.4 - 0.0 - - - - - - -
27/03:00pm 31.0 SE 10 16 1017.4 - 0.0 - - - - - - -
27/02:30pm 30.7 SE 10 15 1017.6 - 0.0 - - - - - - -
27/02:00pm 30.6 SE 9 16 1017.7 - 0.0 - - - - - - -
27/01:30pm 30.7 SE 9 14 1017.9 - 0.0 - - - - - - -
27/01:00pm 30.5 SE 8 12 1018.4 - 0.0 - - - - - - -
27/12:30pm 29.6 ESE 8 16 1019.0 - 0.0 - - - - - - -
27/12:00pm 29.0 ESE 9 13 1019.5 - 0.0 - - - - - - -
27/11:30am 28.7 E 10 14 1019.9 - 0.0 - - - - - - -
27/11:00am 28.0 E 11 16 1020.3 - 0.0 - - - - - - -
27/10:30am 27.4 ESE 13 17 1020.5 - 0.0 - - - - - - -
27/10:00am 26.9 E 13 18 1020.6 - 0.0 - - - - - - -
27/09:30am 25.1 ESE 14 19 1020.8 - 0.0 - - - - - - -
27/09:00am 23.8 E 13 18 1020.8 - 0.0 - - - - - - -
27/08:30am 24.5 E 13 16 1020.7 - 0.0 - - - - - - -
27/08:00am 22.7 E 13 17 1020.5 - 0.0 - - - - - - -
27/07:30am 21.9 ESE 11 14 1020.2 - 0.0 - - - - - - -
27/07:00am 20.8 ESE 11 13 1019.9 - 0.0 - - - - - - -
27/06:30am 20.9 ESE 11 15 1019.7 - 0.0 - - - - - - -
27/06:00am 20.8 ESE 11 13 1019.5 - 0.0 - - - - - - -
27/05:30am 21.0 ESE 10 14 1019.4 - 0.0 - - - - - - -
27/05:00am 21.3 ESE 11 15 1019.1 - 0.0 - - - - - - -
27/04:30am 21.4 ESE 11 15 1019.0 - 0.0 - - - - - - -
27/04:00am 21.4 ESE 11 14 1019.0 - 0.0 - - - - - - -
27/03:30am 21.9 ESE 11 16 1019.1 - 0.0 - - - - - - -
27/03:00am 22.1 ESE 11 14 1019.1 - 0.0 - - - - - - -
27/02:30am 21.5 SE 10 12 1019.2 - 0.0 - - - - - - -
27/02:00am 21.5 SE 10 13 1019.3 - 0.0 - - - - - - -
27/01:30am 21.3 SE 9 11 1019.3 - 0.0 - - - - - - -
27/01:00am 21.4 ESE 9 12 1019.5 - 0.0 - - - - - - -
27/12:30am 21.7 ESE 9 11 1019.7 - 0.0 - - - - - - -
27/12:00am 22.0 ESE 9 11 1019.8 - 0.0 - - - - - - -
 
Date/Time
WST
Temp
°C
Wind Pressure Rain since
9am
mm
Weather Cloud Vis
km
Sea
Height
m
Swell
Dir  Spd
kts
Gust
kts
hPa Trend Height
m
Period
s
Dir
26/11:30pm 22.2 ESE 8 10 1019.9 - 0.0 - - - - - - -
26/11:00pm 22.9 ESE 9 12 1020.0 - 0.0 - - - - - - -
26/10:30pm 23.6 ESE 9 12 1020.1 - 0.0 - - - - - - -
26/10:00pm 24.2 ESE 11 14 1020.1 - 0.0 - - - - - - -
26/09:30pm 24.4 ESE 11 17 1019.9 - 0.0 - - - - - - -
26/09:00pm 24.4 ESE 11 14 1019.7 - 0.0 - - - - - - -
26/08:30pm 24.2 ESE 8 10 1019.4 - 0.0 - - - - - - -
26/08:00pm 24.7 ESE 9 11 1019.1 - 0.0 - - - - - - -
26/07:30pm 25.3 ESE 9 12 1018.7 - 0.0 - - - - - - -
26/07:00pm 26.2 ESE 9 13 1018.2 - 0.0 - - - - - - -
26/06:30pm 26.8 ESE 10 14 1017.9 - 0.0 - - - - - - -
26/06:00pm 27.8 SE 12 15 1017.5 - 0.0 - - - - - - -
26/05:30pm 28.3 SE 13 18 1017.1 - 0.0 - - - - - - -
26/05:00pm 29.2 SE 13 19 1016.9 - 0.0 - - - - - - -
26/04:30pm 29.5 ESE 11 16 1016.8 - 0.0 - - - - - - -
26/04:00pm 29.8 ESE 12 17 1016.9 - 0.0 - - - - - - -
26/03:30pm 29.8 ESE 14 22 1016.8 - 0.0 - - - - - - -
26/03:00pm 30.7 ESE 12 17 1016.7 - 0.0 - - - - - - -
26/02:30pm 29.8 ESE 14 17 1016.9 - 0.0 - - - - - - -
26/02:00pm 30.5 E 13 18 1017.2 - 0.0 - - - - - - -
26/01:30pm 30.7 ESE 11 16 1017.3 - 0.0 - - - - - - -
26/01:00pm 30.1 ESE 12 19 1017.6 - 0.0 - - - - - - -
26/12:30pm 29.2 E 13 20 1018.1 - 0.0 - - - - - - -
26/12:00pm 28.9 ESE 15 22 1018.5 - 0.0 - - - - - - -
26/11:30am 28.5 E 15 21 1018.8 - 0.0 - - - - - - -
26/11:00am 28.4 ESE 15 22 1019.1 - 0.0 - - - - - - -
26/10:30am 27.9 ESE 16 22 1019.4 - 0.0 - - - - - - -
26/10:00am 26.3 ESE 17 22 1019.7 - 0.0 - - - - - - -
26/09:37am 25.9 ESE 17 27 1019.6 - 0.0 - - - - - - -
26/09:30am 25.6 ESE 18 24 1019.7 - 0.0 - - - - - - -
26/09:00am 25.2 ESE 17 24 1019.8 - 0.0 - - - - - - -
26/08:30am 24.8 ESE 15 22 1019.7 - 0.0 - - - - - - -
26/08:00am 23.8 ESE 15 22 1019.2 - 0.0 - - - - - - -
26/07:30am 22.6 ESE 13 19 1018.7 - 0.0 - - - - - - -
26/07:00am 21.6 ESE 12 16 1018.6 - 0.0 - - - - - - -
26/06:30am 21.4 ESE 13 18 1018.5 - 0.0 - - - - - - -
26/06:00am 21.3 ESE 12 17 1018.4 - 0.0 - - - - - - -
26/05:30am 21.1 ESE 12 16 1018.3 - 0.0 - - - - - - -
26/05:00am 21.1 ESE 12 16 1018.1 - 0.0 - - - - - - -
26/04:30am 20.0 ESE 10 13 1018.1 - 0.0 - - - - - - -
26/04:00am 19.6 SE 9 13 1018.0 - 0.0 - - - - - - -
26/03:30am 19.1 SE 8 12 1018.0 - 0.0 - - - - - - -
26/03:00am 19.2 SE 9 11 1018.2 - 0.0 - - - - - - -
26/02:30am 19.6 SSE 10 12 1018.4 - 0.0 - - - - - - -
26/02:00am 19.9 SSE 11 15 1018.5 - 0.0 - - - - - - -
26/01:30am 19.9 SSE 11 16 1018.5 - 0.0 - - - - - - -
26/01:00am 20.1 SSE 11 14 1018.7 - 0.0 - - - - - - -
26/12:30am 20.5 SSE 13 17 1018.9 - 0.0 - - - - - - -
26/12:00am 20.7 SSE 12 17 1018.9 - 0.0 - - - - - - -
 
Date/Time
WST
Temp
°C
Wind Pressure Rain since
9am
mm
Weather Cloud Vis
km
Sea
Height
m
Swell
Dir  Spd
kts
Gust
kts
hPa Trend Height
m
Period
s
Dir
25/11:30pm 21.0 SSE 13 19 1019.1 - 0.0 - - - - - - -
25/11:00pm 21.2 SSE 13 19 1019.1 - 0.0 - - - - - - -
25/10:30pm 21.6 SSE 14 21 1019.2 - 0.0 - - - - - - -
25/10:00pm 22.0 SSE 15 21 1019.0 - 0.0 - - - - - - -
25/09:30pm 22.2 SSE 14 21 1018.9 - 0.0 - - - - - - -
25/09:00pm 22.4 SSE 16 23 1018.8 - 0.0 - - - - - - -
25/08:30pm 22.6 SSE 15 24 1018.5 - 0.0 - - - - - - -
25/08:00pm 22.6 SSE 17 25 1018.1 - 0.0 - - - - - - -
25/07:30pm 22.8 S 15 22 1017.8 - 0.0 - - - - - - -
25/07:00pm 23.0 S 16 21 1017.6 - 0.0 - - - - - - -
25/06:30pm 23.0 S 14 21 1017.0 - 0.0 - - - - - - -

Other Formats:

Comma delimited format used in spreadsheet applications
http://www.bom.gov.au/fwo/IDW60701/IDW60701.95402.axf

JavaScript Object Notation format (JSON) in row-major order
http://www.bom.gov.au/fwo/IDW60701/IDW60701.95402.json